Time;durP1;ratioP1;P1;durP2;ratioP2;P2;SDS_P1;SDS_P2;PMS_P1;PMS_P2;Temp;Humidity;BMP_temperature;BMP_pressure;BME280_temperature;BME280_humidity;BME280_pressure;Samples;Min_cycle;Max_cycle;Signal;HPM_P1;HPM_P2
2021/12/17 00:01:15;;;;;;;0.00;0.00;;;;;20.90;100407.00;;;;5087007;28;20117;-74
2021/12/17 00:03:49;;;;;;;0.00;0.00;;;;;20.90;100426.00;;;;5086765;28;20089;-75
2021/12/17 00:08:56;;;;;;;0.00;0.00;;;;;20.80;100433.00;;;;5086574;28;20136;-75
2021/12/17 00:11:27;;;;;;;0.00;0.00;;;;;20.80;100403.00;;;;5086727;28;20823;-75
2021/12/17 00:13:57;;;;;;;0.00;0.00;;;;;20.70;100420.00;;;;5086936;28;20040;-75
2021/12/17 00:16:32;;;;;;;0.00;0.00;;;;;20.60;100401.00;;;;5086937;28;20035;-75
2021/12/17 00:19:18;;;;;;;0.00;0.00;;;;;20.50;100420.00;;;;5086020;28;20040;-75
2021/12/17 00:50:19;;;;;;;0.00;0.00;;;;;20.00;100445.00;;;;5085058;28;20522;-74
2021/12/17 00:52:49;;;;;;;0.00;0.00;;;;;20.00;100442.00;;;;5085711;28;20040;-74
2021/12/17 00:55:18;;;;;;;0.00;0.00;;;;;19.90;100434.00;;;;5085010;28;20051;-74
2021/12/17 00:57:48;;;;;;;0.00;0.00;;;;;19.90;100446.00;;;;5085166;28;20883;-74
2021/12/17 01:00:21;;;;;;;0.00;0.00;;;;;19.80;100462.00;;;;5085956;28;20503;-74
2021/12/17 01:02:51;;;;;;;0.00;0.00;;;;;19.80;100466.00;;;;5085146;28;20076;-74
2021/12/17 01:05:27;;;;;;;0.00;0.00;;;;;19.80;100450.00;;;;5084706;28;20131;-74
2021/12/17 01:07:59;;;;;;;0.00;0.00;;;;;19.70;100456.00;;;;5085093;28;20055;-73
2021/12/17 01:10:48;;;;;;;0.00;0.00;;;;;19.70;100479.00;;;;5084680;28;20044;-74
2021/12/17 01:13:41;;;;;;;0.25;0.25;;;;;19.60;100479.00;;;;5064146;28;20431;-77
2021/12/17 01:16:37;;;;;;;0.00;0.00;;;;;19.60;100461.00;;;;5062701;28;21213;-76
2021/12/17 01:19:42;;;;;;;0.00;0.00;;;;;19.50;100472.00;;;;5085142;28;20071;-73
2021/12/17 01:25:49;;;;;;;0.00;0.00;;;;;19.30;100479.00;;;;5084805;28;20101;-74
2021/12/17 01:44:02;;;;;;;0.90;0.85;;;;;19.10;100455.00;;;;5088540;28;20051;-74
2021/12/17 01:46:35;;;;;;;0.00;0.00;;;;;19.00;100471.00;;;;5088128;28;20051;-74
2021/12/17 02:00:05;;;;;;;;;;;;;18.70;100492.00;;;;5088272;28;20040;-74
2021/12/17 02:02:47;;;;;;;0.00;0.00;;;;;18.70;100496.00;;;;5089278;28;20366;-74
2021/12/17 02:05:27;;;;;;;0.00;0.00;;;;;18.70;100500.00;;;;5088957;28;20048;-74
2021/12/17 02:07:58;;;;;;;1.40;0.55;;;;;18.70;100500.00;;;;5088905;28;20036;-74
2021/12/17 02:32:19;;;;;;;0.00;0.00;;;;;18.40;100487.00;;;;5087310;28;20846;-74
2021/12/17 02:35:19;;;;;;;0.00;0.00;;;;;18.40;100484.00;;;;5087323;28;20082;-75
2021/12/17 02:37:50;;;;;;;0.00;0.00;;;;;18.40;100487.00;;;;5088716;28;20109;-74
2021/12/17 02:46:26;;;;;;;0.00;0.00;;;;;18.20;100475.00;;;;5082946;28;20482;-74
2021/12/17 02:48:57;;;;;;;0.00;0.00;;;;;18.20;100485.00;;;;5085417;28;20079;-75
2021/12/17 02:51:26;;;;;;;0.30;0.30;;;;;18.20;100489.00;;;;5087999;28;20529;-75
2021/12/17 02:53:57;;;;;;;0.00;0.00;;;;;18.20;100483.00;;;;5086097;28;20120;-74
2021/12/17 02:56:28;;;;;;;0.00;0.00;;;;;18.20;100466.00;;;;5088116;28;20429;-75
2021/12/17 02:58:57;;;;;;;0.00;0.00;;;;;18.10;100465.00;;;;5087911;28;20048;-75
2021/12/17 03:01:27;;;;;;;0.00;0.00;;;;;18.10;100481.00;;;;5087846;28;20588;-75
2021/12/17 03:03:59;;;;;;;0.00;0.00;;;;;18.20;100486.00;;;;5086426;28;20099;-75
2021/12/17 03:06:29;;;;;;;0.00;0.00;;;;;18.20;100486.00;;;;5087641;28;20521;-75
2021/12/17 03:08:58;;;;;;;0.00;0.00;;;;;18.40;100472.00;;;;5088216;28;20055;-75
2021/12/17 03:11:27;;;;;;;0.00;0.00;;;;;18.50;100486.00;;;;5087878;28;20051;-74
2021/12/17 03:13:56;;;;;;;0.00;0.00;;;;;18.60;100466.00;;;;5086499;28;20044;-74
2021/12/17 03:16:39;;;;;;;0.00;0.00;;;;;18.60;100474.00;;;;5088051;28;20067;-74
2021/12/17 03:23:25;;;;;;;0.00;0.00;;;;;18.60;100475.00;;;;5087545;28;20040;-74
2021/12/17 03:24:52;;;;;;;0.00;0.00;;;;;18.50;100463.00;;;;5086505;28;20044;-75
2021/12/17 03:27:22;;;;;;;0.00;0.00;;;;;18.40;100456.00;;;;5087740;28;20044;-74
2021/12/17 03:29:51;;;;;;;0.00;0.00;;;;;18.30;100473.00;;;;5085928;28;20164;-75
2021/12/17 03:32:21;;;;;;;0.00;0.00;;;;;18.20;100470.00;;;;5085572;28;20418;-74
2021/12/17 03:34:51;;;;;;;0.00;0.00;;;;;18.10;100446.00;;;;5085887;28;20052;-75
2021/12/17 03:37:20;;;;;;;0.00;0.00;;;;;18.00;100457.00;;;;5068831;28;20090;-74
2021/12/17 03:39:51;;;;;;;0.00;0.00;;;;;18.00;100448.00;;;;5085663;28;20052;-74
2021/12/17 03:42:20;;;;;;;0.00;0.00;;;;;17.90;100461.00;;;;5085628;28;20040;-74
2021/12/17 03:44:50;;;;;;;0.00;0.00;;;;;17.90;100466.00;;;;5086219;28;20044;-75
2021/12/17 03:47:37;;;;;;;0.00;0.00;;;;;17.80;100453.00;;;;5087542;28;20066;-74
2021/12/17 03:50:19;;;;;;;0.00;0.00;;;;;17.80;100456.00;;;;5086919;28;20056;-75
2021/12/17 03:52:50;;;;;;;0.00;0.00;;;;;17.80;100463.00;;;;5085248;28;20044;-74
2021/12/17 03:55:25;;;;;;;0.00;0.00;;;;;17.70;100437.00;;;;5085074;28;20054;-74
2021/12/17 03:57:59;;;;;;;0.00;0.00;;;;;17.60;100443.00;;;;5085500;28;20826;-74
2021/12/17 04:00:31;;;;;;;0.00;0.00;;;;;17.60;100443.00;;;;5068842;28;20449;-74
2021/12/17 04:03:04;;;;;;;0.00;0.00;;;;;17.50;100450.00;;;;5085164;28;20052;-74
2021/12/17 04:05:48;;;;;;;0.00;0.00;;;;;17.50;100430.00;;;;5086046;28;20048;-74
2021/12/17 04:08:36;;;;;;;0.00;0.00;;;;;17.50;100433.00;;;;5086661;28;20059;-74
2021/12/17 04:11:29;;;;;;;0.00;0.00;;;;;17.50;100443.00;;;;5085699;28;20514;-74
2021/12/17 04:14:04;;;;;;;0.13;0.13;;;;;17.50;100421.00;;;;5086172;28;20396;-74
2021/12/17 04:16:47;;;;;;;0.00;0.00;;;;;17.50;100425.00;;;;5085615;28;20048;-74
2021/12/17 04:19:17;;;;;;;0.00;0.00;;;;;17.50;100434.00;;;;5086902;28;20054;-73
2021/12/17 04:21:46;;;;;;;0.00;0.00;;;;;17.50;100412.00;;;;5087304;28;20056;-75
2021/12/17 04:24:15;;;;;;;0.00;0.00;;;;;17.40;100422.00;;;;5086993;28;20043;-74
2021/12/17 04:26:45;;;;;;;0.00;0.00;;;;;17.40;100414.00;;;;5085231;28;20055;-74
2021/12/17 04:29:22;;;;;;;0.00;0.00;;;;;17.40;100425.00;;;;5085256;28;20083;-74
2021/12/17 04:31:56;;;;;;;0.00;0.00;;;;;17.50;100414.00;;;;5085467;28;20121;-74
2021/12/17 04:34:32;;;;;;;0.00;0.00;;;;;17.50;100417.00;;;;5084714;28;20050;-74
2021/12/17 04:37:04;;;;;;;0.00;0.00;;;;;17.50;100415.00;;;;5086117;28;20052;-74
2021/12/17 04:39:45;;;;;;;0.00;0.00;;;;;17.60;100418.00;;;;5093012;28;20052;-73
2021/12/17 04:42:23;;;;;;;182.63;71.95;;;;;17.60;100404.00;;;;5092178;28;20040;-74
2021/12/17 04:44:56;;;;;;;0.00;0.00;;;;;17.50;100409.00;;;;5084929;28;20048;-74
2021/12/17 04:58:55;;;;;;;0.00;0.00;;;;;17.40;100383.00;;;;5084690;28;20044;-74
2021/12/17 05:01:25;;;;;;;0.00;0.00;;;;;17.40;100387.00;;;;5085401;28;20048;-74
2021/12/17 05:03:55;;;;;;;0.08;0.08;;;;;17.40;100383.00;;;;5084802;28;20495;-74
2021/12/17 05:06:29;;;;;;;0.00;0.00;;;;;17.40;100405.00;;;;5085016;28;20040;-74
2021/12/17 05:09:12;;;;;;;0.00;0.00;;;;;17.40;100403.00;;;;5086136;28;20094;-74
2021/12/17 05:19:53;;;;;;;0.00;0.00;;;;;17.20;100371.00;;;;5089126;28;20070;-74
2021/12/17 05:22:24;;;;;;;0.00;0.00;;;;;17.20;100383.00;;;;5088785;28;20572;-74
2021/12/17 05:24:55;;;;;;;0.00;0.00;;;;;17.10;100391.00;;;;5088636;28;20048;-75
2021/12/17 05:27:25;;;;;;;0.00;0.00;;;;;17.00;100386.00;;;;5087995;28;20048;-77
2021/12/17 05:29:59;;;;;;;0.00;0.00;;;;;17.00;100388.00;;;;5089862;28;20093;-74
2021/12/17 05:32:31;;;;;;;0.00;0.00;;;;;17.00;100381.00;;;;5088504;28;20048;-76
2021/12/17 05:35:03;;;;;;;0.00;0.00;;;;;16.90;100357.00;;;;5088650;28;20046;-74
2021/12/17 05:37:33;;;;;;;0.00;0.00;;;;;16.90;100386.00;;;;5071731;28;20058;-74
2021/12/17 05:40:04;;;;;;;0.00;0.00;;;;;16.90;100392.00;;;;5088844;28;20062;-76
2021/12/17 05:42:35;;;;;;;0.00;0.00;;;;;16.90;100374.00;;;;5088144;28;20051;-73
2021/12/17 05:45:22;;;;;;;0.00;0.00;;;;;16.90;100350.00;;;;5088668;28;20050;-77
2021/12/17 05:47:52;;;;;;;0.00;0.00;;;;;16.90;100377.00;;;;5088998;28;20052;-73
2021/12/17 05:50:21;;;;;;;0.00;0.00;;;;;16.90;100367.00;;;;5088514;28;20510;-73
2021/12/17 05:52:51;;;;;;;0.00;0.00;;;;;16.90;100350.00;;;;5088103;28;20040;-74
2021/12/17 05:55:21;;;;;;;0.00;0.00;;;;;16.90;100381.00;;;;5088343;28;20051;-74
2021/12/17 05:57:52;;;;;;;0.00;0.00;;;;;16.80;100385.00;;;;5089244;28;20056;-74
2021/12/17 06:00:23;;;;;;;0.00;0.00;;;;;16.80;100365.00;;;;5089588;28;20052;-73
2021/12/17 06:02:52;;;;;;;0.00;0.00;;;;;16.90;100377.00;;;;5090058;28;20131;-76
2021/12/17 06:05:42;;;;;;;0.00;0.00;;;;;16.90;100366.00;;;;5088917;28;20073;-75
2021/12/17 06:08:12;;;;;;;0.00;0.00;;;;;16.90;100373.00;;;;5087736;28;20058;-75
2021/12/17 06:10:42;;;;;;;0.00;0.00;;;;;16.90;100369.00;;;;5088292;28;20044;-74
2021/12/17 06:13:12;;;;;;;0.00;0.00;;;;;16.90;100367.00;;;;5072511;28;20435;-76
2021/12/17 06:15:41;;;;;;;0.00;0.00;;;;;16.90;100395.00;;;;5087710;28;20087;-76
2021/12/17 06:18:10;;;;;;;0.00;0.00;;;;;16.90;100363.00;;;;5088085;28;20056;-76
2021/12/17 06:20:40;;;;;;;0.00;0.00;;;;;17.00;100371.00;;;;5087538;28;20048;-75
2021/12/17 06:23:09;;;;;;;0.00;0.00;;;;;17.00;100363.00;;;;5087534;28;20052;-77
2021/12/17 06:25:38;;;;;;;0.00;0.00;;;;;17.00;100362.00;;;;5087670;28;20048;-77
2021/12/17 06:28:08;;;;;;;0.00;0.00;;;;;17.00;100390.00;;;;5087329;28;20415;-76
2021/12/17 06:30:37;;;;;;;0.00;0.00;;;;;17.00;100384.00;;;;5087315;28;20063;-78
2021/12/17 06:33:11;;;;;;;0.00;0.00;;;;;16.90;100395.00;;;;5087575;28;20044;-76
2021/12/17 06:35:41;;;;;;;0.10;0.03;;;;;16.90;100394.00;;;;5086958;28;20052;-76
2021/12/17 06:38:11;;;;;;;0.00;0.00;;;;;16.90;100384.00;;;;5087340;28;20058;-75
2021/12/17 06:40:41;;;;;;;0.00;0.00;;;;;16.90;100396.00;;;;5071458;28;20414;-76
2021/12/17 06:43:10;;;;;;;0.00;0.00;;;;;16.80;100390.00;;;;5087660;28;20074;-77
2021/12/17 06:48:23;;;;;;;0.00;0.00;;;;;16.70;100414.00;;;;5086986;28;20052;-77
2021/12/17 07:00:10;;;;;;;0.00;0.00;;;;;16.90;100397.00;;;;5088435;28;20054;-76
2021/12/17 07:06:36;;;;;;;0.00;0.00;;;;;16.90;100416.00;;;;5088629;28;20127;-73
2021/12/17 07:17:26;;;;;;;0.00;0.00;;;;;16.90;100447.00;;;;5086204;28;20146;-76
2021/12/17 07:28:48;;;;;;;0.00;0.00;;;;;16.70;100447.00;;;;5086564;28;20519;-75
2021/12/17 07:34:11;;;;;;;0.00;0.00;;;;;16.70;100448.00;;;;4989011;28;20655;-75
2021/12/17 07:39:37;;;;;;;0.00;0.00;;;;;16.40;100450.00;;;;5086212;28;20079;-75
2021/12/17 07:42:14;;;;;;;0.00;0.00;;;;;16.40;100471.00;;;;5086696;28;20084;-77
2021/12/17 07:44:57;;;;;;;0.00;0.00;;;;;16.30;100480.00;;;;5087788;28;20060;-77
2021/12/17 07:47:36;;;;;;;0.00;0.00;;;;;16.40;100487.00;;;;5085687;28;20048;-74
2021/12/17 07:50:15;;;;;;;0.00;0.00;;;;;16.30;100485.00;;;;5087642;28;20109;-75
2021/12/17 07:53:08;;;;;;;0.00;0.00;;;;;16.30;100474.00;;;;5085749;28;20134;-76
2021/12/17 07:55:48;;;;;;;0.00;0.00;;;;;16.40;100498.00;;;;5085578;28;20125;-76
2021/12/17 07:58:21;;;;;;;0.00;0.00;;;;;16.40;100478.00;;;;5086278;28;20122;-77
2021/12/17 08:00:51;;;;;;;0.00;0.00;;;;;16.40;100506.00;;;;5086092;28;20044;-77
2021/12/17 08:03:21;;;;;;;0.00;0.00;;;;;16.40;100491.00;;;;5087560;28;20052;-76
2021/12/17 08:05:55;;;;;;;0.00;0.00;;;;;16.40;100487.00;;;;5085995;28;20048;-78
2021/12/17 08:08:27;;;;;;;0.00;0.00;;;;;16.40;100496.00;;;;5085373;28;20056;-77
2021/12/17 08:11:17;;;;;;;0.00;0.00;;;;;16.40;100490.00;;;;5085587;28;20075;-75
2021/12/17 08:13:48;;;;;;;0.00;0.00;;;;;16.40;100500.00;;;;5085793;28;20044;-75
2021/12/17 08:32:08;;;;;;;0.00;0.00;;;;;16.30;100524.00;;;;5085179;28;20082;-77
2021/12/17 08:34:48;;;;;;;;;;;;;16.40;100535.00;;;;5085991;28;20087;-75
2021/12/17 08:37:19;;;;;;;0.00;0.00;;;;;16.40;100516.00;;;;5085779;28;19994;-78
2021/12/17 08:39:52;;;;;;;0.00;0.00;;;;;16.40;100519.00;;;;5085280;28;20059;-75
2021/12/17 08:42:30;;;;;;;1.35;0.52;;;;;16.30;100508.00;;;;5085224;28;20051;-75
2021/12/17 08:45:07;;;;;;;0.00;0.00;;;;;16.40;100526.00;;;;5084787;28;20094;-75
2021/12/17 08:47:51;;;;;;;0.00;0.00;;;;;16.40;100537.00;;;;5085886;28;20119;-74
2021/12/17 08:50:35;;;;;;;0.00;0.00;;;;;16.30;100542.00;;;;5086327;28;20073;-77
2021/12/17 08:53:07;;;;;;;0.00;0.00;;;;;16.50;100561.00;;;;5084919;28;20059;-77
2021/12/17 08:55:37;;;;;;;0.00;0.00;;;;;16.60;100547.00;;;;5086457;28;20073;-75
2021/12/17 08:58:12;;;;;;;0.00;0.00;;;;;16.70;100551.00;;;;5084919;28;20467;-75
2021/12/17 09:00:46;;;;;;;0.00;0.00;;;;;16.80;100534.00;;;;5085423;28;20082;-75
2021/12/17 09:03:24;;;;;;;0.00;0.00;;;;;16.90;100528.00;;;;5084782;28;20531;-77
2021/12/17 09:06:16;;;;;;;0.20;0.13;;;;;16.90;100537.00;;;;5084342;28;20522;-77
2021/12/17 09:08:49;;;;;;;0.00;0.00;;;;;17.00;100535.00;;;;5084878;28;20102;-77
2021/12/17 09:11:26;;;;;;;0.00;0.00;;;;;17.10;100550.00;;;;5085045;28;20422;-78
2021/12/17 09:14:19;;;;;;;0.00;0.00;;;;;17.20;100563.00;;;;5075224;28;20601;-77
2021/12/17 09:16:55;;;;;;;0.00;0.00;;;;;17.30;100568.00;;;;5085327;28;20040;-76
2021/12/17 09:19:30;;;;;;;0.00;0.00;;;;;17.30;100577.00;;;;5084943;28;20047;-75
2021/12/17 09:22:05;;;;;;;0.05;0.05;;;;;17.50;100558.00;;;;5085360;28;20617;-75
2021/12/17 09:24:42;;;;;;;0.00;0.00;;;;;17.60;100565.00;;;;5084800;28;20048;-78
2021/12/17 09:27:19;;;;;;;0.00;0.00;;;;;18.60;100492.00;;;;5087197;28;20056;-77
2021/12/17 09:30:17;;;;;;;0.00;0.00;;;;;19.20;100491.00;;;;5086660;28;20048;-76
2021/12/17 09:32:47;;;;;;;0.00;0.00;;;;;22.70;100447.00;;;;5086092;28;20139;-75
2021/12/17 09:35:19;;;;;;;0.00;0.00;;;;;21.60;100525.00;;;;5083747;28;20043;-77
2021/12/17 09:37:49;;;;;;;0.00;0.00;;;;;20.20;100546.00;;;;5085078;28;20395;-76
2021/12/17 09:40:18;;;;;;;0.00;0.00;;;;;21.40;100494.00;;;;5086525;28;20476;-75
2021/12/17 09:42:49;;;;;;;0.00;0.00;;;;;21.10;100524.00;;;;5086929;28;20048;-78
2021/12/17 09:45:19;;;;;;;0.00;0.00;;;;;21.00;100539.00;;;;5086130;28;20136;-77
2021/12/17 09:47:48;;;;;;;0.00;0.00;;;;;20.60;100540.00;;;;5086223;28;20525;-78
2021/12/17 09:50:21;;;;;;;0.00;0.00;;;;;20.50;100559.00;;;;5085345;28;20052;-76
2021/12/17 09:52:53;;;;;;;0.03;0.03;;;;;20.50;100550.00;;;;5085812;28;20044;-74
2021/12/17 09:55:24;;;;;;;5.57;1.55;;;;;20.60;100551.00;;;;5086781;28;20123;-75
2021/12/17 09:57:54;;;;;;;0.52;0.52;;;;;20.80;100561.00;;;;5089816;28;20498;-78
2021/12/17 10:00:26;;;;;;;1.73;0.77;;;;;20.90;100549.00;;;;5089976;28;20043;-76
2021/12/17 10:03:00;;;;;;;0.00;0.00;;;;;20.90;100561.00;;;;5089441;28;20079;-75
2021/12/17 10:05:34;;;;;;;0.00;0.00;;;;;20.70;100574.00;;;;5089794;28;20595;-77
2021/12/17 10:08:10;;;;;;;0.00;0.00;;;;;20.50;100569.00;;;;5089642;28;20042;-75
2021/12/17 10:10:42;;;;;;;0.20;0.20;;;;;20.40;100592.00;;;;5089689;28;20036;-75
2021/12/17 10:13:23;;;;;;;0.00;0.00;;;;;20.50;100569.00;;;;5087707;28;20047;-74
2021/12/17 10:15:55;;;;;;;0.00;0.00;;;;;20.70;100558.00;;;;5089369;28;20055;-74
2021/12/17 10:18:34;;;;;;;0.00;0.00;;;;;22.20;100553.00;;;;5087965;28;20078;-74
2021/12/17 10:21:09;;;;;;;0.00;0.00;;;;;21.70;100588.00;;;;5089200;28;20035;-73
2021/12/17 10:23:42;;;;;;;0.00;0.00;;;;;22.70;100530.00;;;;5088711;28;20116;-75
2021/12/17 10:26:18;;;;;;;0.55;0.10;;;;;22.10;100553.00;;;;5088942;28;20418;-74
2021/12/17 10:28:58;;;;;;;0.00;0.00;;;;;25.30;100516.00;;;;5089284;28;20040;-74
2021/12/17 10:31:29;;;;;;;0.00;0.00;;;;;24.60;100550.00;;;;5088886;28;20481;-75
2021/12/17 10:34:03;;;;;;;0.00;0.00;;;;;23.30;100579.00;;;;5088915;28;20040;-73
2021/12/17 10:36:52;;;;;;;0.00;0.00;;;;;22.70;100586.00;;;;5089257;28;20483;-75
2021/12/17 10:39:25;;;;;;;0.15;0.10;;;;;22.10;100589.00;;;;5089393;28;20044;-75
2021/12/17 10:41:55;;;;;;;0.00;0.00;;;;;22.10;100602.00;;;;5088926;28;20139;-75
2021/12/17 10:44:24;;;;;;;0.00;0.00;;;;;22.30;100596.00;;;;5088827;28;20499;-74
2021/12/17 10:47:17;;;;;;;0.00;0.00;;;;;22.50;100597.00;;;;5087817;28;20483;-74
2021/12/17 10:49:54;;;;;;;0.00;0.00;;;;;22.50;100611.00;;;;5089221;28;20515;-75
2021/12/17 10:52:39;;;;;;;0.10;0.10;;;;;22.70;100603.00;;;;5088728;28;20071;-74
2021/12/17 10:55:16;;;;;;;0.00;0.00;;;;;22.80;100604.00;;;;5088300;28;20048;-74
2021/12/17 10:57:49;;;;;;;0.00;0.00;;;;;22.90;100595.00;;;;5088560;28;20040;-75
2021/12/17 11:00:20;;;;;;;0.00;0.00;;;;;23.30;100569.00;;;;5089398;28;20123;-74
2021/12/17 11:02:51;;;;;;;0.00;0.00;;;;;29.00;100391.00;;;;5088417;28;20056;-74
2021/12/17 11:05:23;;;;;;;0.00;0.00;;;;;32.10;100392.00;;;;5088172;28;20039;-74
2021/12/17 11:07:53;;;;;;;0.00;0.00;;;;;30.90;100401.00;;;;5088405;28;20043;-74
2021/12/17 11:10:32;;;;;;;0.10;0.10;;;;;33.60;100481.00;;;;5088618;28;20071;-75
2021/12/17 11:13:01;;;;;;;0.00;0.00;;;;;27.30;100640.00;;;;5088459;28;20044;-74
2021/12/17 11:15:31;;;;;;;0.00;0.00;;;;;24.70;100607.00;;;;5087876;28;20093;-74
2021/12/17 11:18:05;;;;;;;0.00;0.00;;;;;30.50;100373.00;;;;5087587;28;20052;-75
2021/12/17 11:20:37;;;;;;;0.00;0.00;;;;;29.70;100583.00;;;;5088678;28;20148;-76
2021/12/17 11:23:13;;;;;;;0.45;0.20;;;;;25.30;100656.00;;;;5087859;28;20032;-76
2021/12/17 11:25:48;;;;;;;1.17;1.08;;;;;24.10;100627.00;;;;5087769;28;20506;-75
2021/12/17 11:28:18;;;;;;;0.05;0.05;;;;;30.20;100406.00;;;;5087399;28;20122;-75
2021/12/17 11:30:49;;;;;;;0.20;0.15;;;;;32.70;100423.00;;;;5087466;28;20085;-75
2021/12/17 11:33:19;;;;;;;0.00;0.00;;;;;26.90;100638.00;;;;5088400;28;20564;-75
2021/12/17 11:35:52;;;;;;;0.00;0.00;;;;;25.40;100625.00;;;;5087194;28;20094;-75
2021/12/17 11:38:44;;;;;;;0.00;0.00;;;;;29.90;100432.00;;;;5087797;28;20047;-76
2021/12/17 11:42:19;;;;;;;0.10;0.10;;;;;32.00;100445.00;;;;5087856;28;20039;-76
2021/12/17 11:44:54;;;;;;;0.00;0.00;;;;;30.20;100444.00;;;;5088016;28;20382;-76
2021/12/17 11:47:34;;;;;;;0.00;0.00;;;;;30.20;100454.00;;;;5087894;28;20039;-75
2021/12/17 11:50:10;;;;;;;0.10;0.10;;;;;29.40;100451.00;;;;5086980;28;20122;-76
2021/12/17 11:52:56;;;;;;;0.93;0.43;;;;;28.90;100479.00;;;;5088006;28;20151;-75
2021/12/17 11:55:34;;;;;;;0.73;0.47;;;;;28.70;100566.00;;;;5085736;28;20040;-75
2021/12/17 11:58:09;;;;;;;0.00;0.00;;;;;28.70;100546.00;;;;5087636;28;20410;-77
2021/12/17 12:00:42;;;;;;;0.52;0.40;;;;;29.00;100594.00;;;;5087529;28;20048;-76
2021/12/17 12:03:22;;;;;;;0.00;0.00;;;;;28.40;100600.00;;;;5087237;28;20139;-75
2021/12/17 12:05:56;;;;;;;0.03;0.00;;;;;28.40;100599.00;;;;5086947;28;20059;-76
2021/12/17 12:08:54;;;;;;;0.10;0.10;;;;;28.90;100606.00;;;;5087628;28;20039;-76
2021/12/17 12:11:28;;;;;;;0.52;0.25;;;;;29.10;100606.00;;;;5087400;28;20041;-75
2021/12/17 12:14:02;;;;;;;0.00;0.00;;;;;29.30;100594.00;;;;5085122;28;20044;-76
2021/12/17 12:16:40;;;;;;;0.10;0.10;;;;;29.60;100580.00;;;;5087237;28;20040;-76
2021/12/17 12:19:10;;;;;;;10.32;0.32;;;;;29.40;100599.00;;;;5086534;28;20051;-75
2021/12/17 12:21:40;;;;;;;0.00;0.00;;;;;29.20;100578.00;;;;5087011;28;20040;-76
2021/12/17 12:24:11;;;;;;;0.30;0.30;;;;;28.80;100607.00;;;;5086963;28;20313;-76
2021/12/17 12:26:47;;;;;;;0.00;0.00;;;;;29.20;100599.00;;;;5086540;28;20048;-76
2021/12/17 12:29:24;;;;;;;0.00;0.00;;;;;29.90;100586.00;;;;5087087;28;20043;-76
2021/12/17 12:32:18;;;;;;;0.10;0.10;;;;;30.30;100586.00;;;;5087012;28;20478;-75
2021/12/17 12:34:48;;;;;;;0.20;0.20;;;;;29.90;100608.00;;;;5086757;28;20047;-76
2021/12/17 12:37:22;;;;;;;0.10;0.10;;;;;29.90;100594.00;;;;5085080;28;20126;-75
2021/12/17 12:39:57;;;;;;;0.00;0.00;;;;;29.40;100590.00;;;;5087225;28;20040;-75
2021/12/17 12:42:35;;;;;;;0.00;0.00;;;;;30.40;100591.00;;;;5087385;28;20043;-77
2021/12/17 12:45:09;;;;;;;0.00;0.00;;;;;31.00;100591.00;;;;5086938;28;20541;-77
2021/12/17 12:47:43;;;;;;;0.00;0.00;;;;;30.80;100598.00;;;;5086498;28;20127;-74
2021/12/17 12:50:19;;;;;;;0.00;0.00;;;;;30.20;100602.00;;;;5085401;28;20134;-76
2021/12/17 12:53:04;;;;;;;0.00;0.00;;;;;30.40;100602.00;;;;5086874;28;20044;-76
2021/12/17 12:55:35;;;;;;;0.20;0.20;;;;;29.00;100605.00;;;;5086571;28;20044;-76
2021/12/17 12:58:15;;;;;;;0.00;0.00;;;;;29.60;100597.00;;;;5084754;28;20059;-76
2021/12/17 13:00:47;;;;;;;0.77;0.77;;;;;30.30;100617.00;;;;5086978;28;20060;-77
2021/12/17 13:03:22;;;;;;;0.00;0.00;;;;;30.20;100611.00;;;;5085784;28;20062;-75
2021/12/17 13:05:53;;;;;;;0.40;0.30;;;;;29.50;100620.00;;;;5086357;28;20502;-74
2021/12/17 13:08:25;;;;;;;0.20;0.20;;;;;29.60;100654.00;;;;5086116;28;20048;-75
2021/12/17 13:10:58;;;;;;;0.00;0.00;;;;;28.70;100609.00;;;;5086320;28;20475;-76
2021/12/17 13:13:53;;;;;;;0.00;0.00;;;;;29.90;100614.00;;;;5085642;28;20052;-76
2021/12/17 13:22:14;;;;;;;0.10;0.10;;;;;29.80;100653.00;;;;5086294;28;20036;-75
2021/12/17 13:24:45;;;;;;;0.10;0.10;;;;;28.10;100675.00;;;;5086200;28;20433;-75
2021/12/17 13:27:14;;;;;;;0.10;0.10;;;;;27.60;100603.00;;;;5086093;28;20048;-75
2021/12/17 13:29:45;;;;;;;0.00;0.00;;;;;29.20;100604.00;;;;5087893;28;20173;-76
2021/12/17 13:32:16;;;;;;;;;;;;;29.90;100659.00;;;;5091667;28;20044;-74
2021/12/17 13:34:52;;;;;;;0.55;0.43;;;;;28.60;100683.00;;;;5090401;28;19954;-74
2021/12/17 13:37:25;;;;;;;0.00;0.00;;;;;29.00;100596.00;;;;5090607;28;20117;-75
2021/12/17 13:40:00;;;;;;;0.20;0.20;;;;;29.70;100591.00;;;;5090163;28;20140;-75
2021/12/17 13:42:47;;;;;;;0.10;0.10;;;;;30.50;100595.00;;;;5088741;28;20451;-75
2021/12/17 13:45:20;;;;;;;1.05;0.60;;;;;29.90;100660.00;;;;5090219;28;20036;-75
2021/12/17 13:47:54;;;;;;;1.40;0.55;;;;;29.50;100636.00;;;;5089902;28;20044;-74
2021/12/17 13:50:30;;;;;;;0.00;0.00;;;;;28.80;100661.00;;;;5090078;28;20047;-75
2021/12/17 13:53:13;;;;;;;0.00;0.00;;;;;28.30;100644.00;;;;5090101;28;20067;-76
2021/12/17 13:56:03;;;;;;;0.00;0.00;;;;;29.60;100664.00;;;;5089594;28;20036;-75
2021/12/17 13:58:37;;;;;;;1.10;0.65;;;;;29.50;100662.00;;;;5090567;28;20066;-76
2021/12/17 14:01:07;;;;;;;0.00;0.00;;;;;28.50;100659.00;;;;5089580;28;20044;-75
2021/12/17 14:03:41;;;;;;;0.00;0.00;;;;;28.40;100649.00;;;;5089653;28;20472;-75
2021/12/17 14:06:22;;;;;;;0.00;0.00;;;;;27.80;100652.00;;;;5089640;28;20040;-75
2021/12/17 14:08:52;;;;;;;0.00;0.00;;;;;27.20;100649.00;;;;5089568;28;20086;-75
2021/12/17 14:11:32;;;;;;;0.00;0.00;;;;;28.20;100586.00;;;;5089666;28;20097;-75
2021/12/17 14:14:27;;;;;;;0.00;0.00;;;;;29.70;100603.00;;;;5089295;28;20537;-75
2021/12/17 14:17:01;;;;;;;0.00;0.00;;;;;30.30;100599.00;;;;5089063;28;20044;-76
2021/12/17 14:19:36;;;;;;;0.77;0.10;;;;;30.50;100597.00;;;;5089368;28;20040;-76
2021/12/17 14:22:27;;;;;;;0.00;0.00;;;;;30.70;100669.00;;;;5089376;28;20040;-76
2021/12/17 14:24:58;;;;;;;0.10;0.10;;;;;30.50;100625.00;;;;5089777;28;20032;-75
2021/12/17 14:27:46;;;;;;;0.00;0.00;;;;;30.80;100595.00;;;;5089074;28;20047;-77
2021/12/17 14:30:16;;;;;;;0.00;0.00;;;;;30.70;100590.00;;;;5089531;28;20048;-77
2021/12/17 14:32:47;;;;;;;0.00;0.00;;;;;31.10;100614.00;;;;5089751;28;20062;-76
2021/12/17 14:35:43;;;;;;;0.00;0.00;;;;;30.60;100665.00;;;;5088974;28;20044;-75
2021/12/17 14:38:14;;;;;;;0.10;0.10;;;;;28.80;100660.00;;;;5089129;28;20040;-77
2021/12/17 14:40:54;;;;;;;0.00;0.00;;;;;28.60;100653.00;;;;5088312;28;20043;-76
2021/12/17 14:43:34;;;;;;;3.20;0.55;;;;;28.70;100608.00;;;;5088956;28;20567;-76
2021/12/17 14:46:23;;;;;;;0.00;0.00;;;;;29.00;100646.00;;;;5088526;28;20503;-75
2021/12/17 14:49:16;;;;;;;0.00;0.00;;;;;28.10;100668.00;;;;5089633;28;20079;-77
2021/12/17 15:03:23;;;;;;;0.00;0.00;;;;;31.10;100595.00;;;;5088140;28;20060;-77
2021/12/17 15:06:01;;;;;;;0.00;0.00;;;;;31.70;100601.00;;;;5088663;28;20585;-76
2021/12/17 15:08:32;;;;;;;0.00;0.00;;;;;32.10;100605.00;;;;5088445;28;20062;-76
2021/12/17 15:11:05;;;;;;;0.00;0.00;;;;;32.40;100588.00;;;;5089087;28;20040;-76
2021/12/17 15:13:35;;;;;;;0.22;0.00;;;;;32.50;100589.00;;;;5088317;28;20071;-77
2021/12/17 15:16:04;;;;;;;0.00;0.00;;;;;32.60;100591.00;;;;5088759;28;20040;-75
2021/12/17 15:18:34;;;;;;;0.00;0.00;;;;;32.70;100589.00;;;;5088584;28;20043;-75
2021/12/17 15:21:04;;;;;;;0.00;0.00;;;;;31.90;100631.00;;;;5088259;28;20055;-76
2021/12/17 15:23:35;;;;;;;0.00;0.00;;;;;31.60;100588.00;;;;5087144;28;20681;-76
2021/12/17 15:26:05;;;;;;;0.00;0.00;;;;;31.70;100597.00;;;;5088594;28;20051;-76
2021/12/17 15:28:34;;;;;;;0.00;0.00;;;;;31.80;100601.00;;;;5088311;28;20044;-77
2021/12/17 15:31:06;;;;;;;0.00;0.00;;;;;32.20;100574.00;;;;5088747;28;20057;-78
2021/12/17 15:33:36;;;;;;;0.10;0.05;;;;;32.50;100588.00;;;;5087429;28;20044;-75
2021/12/17 15:36:07;;;;;;;0.00;0.00;;;;;32.10;100576.00;;;;5087729;28;20059;-77
2021/12/17 15:38:36;;;;;;;0.00;0.00;;;;;32.10;100591.00;;;;5088183;28;20098;-76
2021/12/17 15:41:06;;;;;;;0.00;0.00;;;;;32.60;100586.00;;;;5088940;28;20036;-75
2021/12/17 15:43:35;;;;;;;0.00;0.00;;;;;32.30;100570.00;;;;5087969;28;20093;-75
2021/12/17 15:46:04;;;;;;;0.00;0.00;;;;;31.70;100559.00;;;;5087933;28;20097;-78
2021/12/17 15:48:34;;;;;;;0.00;0.00;;;;;32.10;100564.00;;;;5087540;28;20055;-76
2021/12/17 15:51:04;;;;;;;2.38;0.13;;;;;31.60;100558.00;;;;5088009;28;20109;-77